Time;durP1;ratioP1;P1;durP2;ratioP2;P2;SDS_P1;SDS_P2;PMS_P1;PMS_P2;Temp;Humidity;BMP_temperature;BMP_pressure;BME280_temperature;BME280_humidity;BME280_pressure;Samples;Min_cycle;Max_cycle;Signal;HPM_P1;HPM_P2
2020/12/03 00:00:42;;;;;;;43.40;38.03;;;2.50;93.20;;;;;;4962568;28;20196;-75
2020/12/03 00:03:16;;;;;;;42.75;38.33;;;2.50;90.60;;;;;;4965846;28;20214;-75
2020/12/03 00:05:44;;;;;;;41.67;37.17;;;2.40;89.50;;;;;;4960826;28;20226;-75
2020/12/03 00:08:12;;;;;;;43.20;37.05;;;2.30;88.90;;;;;;4963428;28;20237;-75
2020/12/03 00:10:39;;;;;;;45.83;40.42;;;2.00;89.20;;;;;;4965620;28;20195;-74
2020/12/03 00:13:13;;;;;;;144.52;47.15;;;2.00;90.10;;;;;;4963307;28;20214;-75
2020/12/03 00:15:41;;;;;;;45.78;38.42;;;2.00;91.60;;;;;;4964429;28;20234;-76
2020/12/03 00:18:08;;;;;;;45.17;38.08;;;2.00;90.30;;;;;;4965741;28;20833;-77
2020/12/03 00:20:35;;;;;;;127.63;46.15;;;2.10;90.50;;;;;;4958376;28;20566;-76
2020/12/03 00:23:01;;;;;;;42.65;36.70;;;2.10;89.90;;;;;;4964396;28;20692;-74
2020/12/03 00:25:28;;;;;;;46.05;38.33;;;2.00;90.30;;;;;;4964964;28;20211;-75
2020/12/03 00:27:56;;;;;;;47.25;36.92;;;2.10;90.00;;;;;;4963363;28;20196;-75
2020/12/03 00:30:24;;;;;;;46.80;38.95;;;2.20;89.70;;;;;;4963928;28;20203;-75
2020/12/03 00:32:53;;;;;;;48.05;38.45;;;2.20;89.70;;;;;;4963354;28;20211;-75
2020/12/03 00:35:21;;;;;;;45.80;38.17;;;2.30;90.00;;;;;;4961960;28;20195;-75
2020/12/03 00:37:49;;;;;;;49.15;39.53;;;2.30;88.80;;;;;;4962721;28;20227;-75
2020/12/03 00:40:16;;;;;;;43.42;37.70;;;2.30;88.90;;;;;;4963780;28;20207;-74
2020/12/03 00:42:43;;;;;;;41.40;36.13;;;2.20;87.90;;;;;;4961637;28;20573;-75
2020/12/03 00:45:11;;;;;;;47.03;37.67;;;2.20;88.60;;;;;;4963372;28;20907;-75
2020/12/03 00:47:38;;;;;;;42.58;36.60;;;2.10;88.00;;;;;;4962605;28;20223;-75
2020/12/03 00:50:07;;;;;;;44.45;37.60;;;2.10;88.00;;;;;;4958172;28;20195;-75
2020/12/03 00:52:34;;;;;;;44.20;39.53;;;2.20;87.60;;;;;;4952589;28;20805;-75
2020/12/03 00:55:00;;;;;;;87.40;40.95;;;2.00;88.40;;;;;;4961889;28;20218;-75
2020/12/03 00:57:27;;;;;;;106.50;43.40;;;2.10;88.50;;;;;;4962585;28;20241;-76
2020/12/03 00:59:53;;;;;;;43.60;37.78;;;2.10;94.70;;;;;;4964255;28;20203;-76
2020/12/03 01:02:19;;;;;;;46.67;36.13;;;2.10;93.20;;;;;;4963452;28;20199;-76
2020/12/03 01:04:46;;;;;;;41.65;35.30;;;2.20;93.40;;;;;;4963688;28;20747;-76
2020/12/03 01:07:13;;;;;;;47.28;36.53;;;2.30;92.40;;;;;;4957043;28;20219;-75
2020/12/03 01:09:41;;;;;;;45.10;38.47;;;2.30;92.20;;;;;;4963900;28;20203;-75
2020/12/03 01:12:09;;;;;;;43.72;37.80;;;2.30;91.00;;;;;;4965952;28;20286;-75
2020/12/03 01:14:36;;;;;;;40.55;36.22;;;2.20;91.10;;;;;;4961005;28;20247;-75
2020/12/03 01:17:04;;;;;;;487.75;79.45;;;2.30;90.40;;;;;;4962594;28;20230;-75
2020/12/03 01:19:31;;;;;;;1973.35;271.77;;;2.40;90.70;;;;;;4964797;28;20215;-75
2020/12/03 01:21:57;;;;;;;46.85;37.75;;;2.40;94.20;;;;;;4962591;28;20760;-75
2020/12/03 01:24:25;;;;;;;45.22;36.92;;;2.50;92.70;;;;;;4963994;28;20206;-75
2020/12/03 01:26:51;;;;;;;49.13;39.72;;;2.50;92.70;;;;;;4960467;28;20219;-75
2020/12/03 01:29:18;;;;;;;44.30;37.10;;;2.60;92.00;;;;;;4963308;28;20208;-74
2020/12/03 01:31:45;;;;;;;45.30;38.20;;;2.60;90.80;;;;;;4964247;28;20199;-75
2020/12/03 01:34:11;;;;;;;48.05;37.58;;;2.60;89.40;;;;;;4956525;28;20207;-76
2020/12/03 01:36:38;;;;;;;46.78;38.85;;;2.40;88.00;;;;;;4959457;28;20219;-75
2020/12/03 01:39:06;;;;;;;47.72;39.28;;;2.40;88.90;;;;;;4957107;28;20232;-75
2020/12/03 01:41:34;;;;;;;44.60;36.40;;;2.40;89.30;;;;;;4956796;28;20199;-75
2020/12/03 01:44:00;;;;;;;47.00;39.10;;;2.40;89.30;;;;;;4963760;28;20666;-75
2020/12/03 01:46:27;;;;;;;44.08;37.80;;;2.50;88.60;;;;;;4960069;28;20265;-74
2020/12/03 01:48:56;;;;;;;49.40;38.38;;;2.50;87.90;;;;;;4962055;28;20203;-74
2020/12/03 01:51:28;;;;;;;1999.90;428.05;;;2.50;95.30;;;;;;4952014;28;20323;-75
2020/12/03 01:53:56;;;;;;;50.50;40.50;;;2.50;95.20;;;;;;4964444;28;20195;-74
2020/12/03 01:57:05;;;;;;;49.67;40.08;;;2.40;94.20;;;;;;4960734;28;20234;-75
2020/12/03 01:59:36;;;;;;;47.13;39.70;;;2.40;92.70;;;;;;4942856;28;20200;-74
2020/12/03 02:02:03;;;;;;;49.20;39.63;;;2.40;91.90;;;;;;4960657;28;20251;-75
2020/12/03 02:04:29;;;;;;;50.00;37.60;;;2.50;91.20;;;;;;4962650;28;20200;-75
2020/12/03 02:07:01;;;;;;;60.53;39.47;;;2.50;91.50;;;;;;4966767;28;20218;-75
2020/12/03 02:09:28;;;;;;;45.47;38.72;;;2.60;94.40;;;;;;4958049;28;20208;-75
2020/12/03 02:11:55;;;;;;;45.65;39.30;;;2.60;91.70;;;;;;4964767;28;20242;-74
2020/12/03 02:14:23;;;;;;;46.80;38.40;;;2.70;90.60;;;;;;4965299;28;20207;-74
2020/12/03 02:16:50;;;;;;;44.53;38.72;;;2.70;89.60;;;;;;4962006;28;20227;-75
2020/12/03 02:19:19;;;;;;;46.55;39.20;;;2.70;88.80;;;;;;4964739;28;20210;-75
2020/12/03 02:21:53;;;;;;;49.30;38.30;;;2.70;88.80;;;;;;4961310;28;20204;-75
2020/12/03 02:24:21;;;;;;;54.92;41.45;;;2.70;88.30;;;;;;4968580;28;20563;-74
2020/12/03 02:26:49;;;;;;;141.60;48.55;;;2.70;90.00;;;;;;4961850;28;20227;-75
2020/12/03 02:29:20;;;;;;;48.67;38.33;;;2.60;91.20;;;;;;4965263;28;20207;-75
2020/12/03 02:31:48;;;;;;;46.60;40.17;;;2.70;93.90;;;;;;4962245;28;20367;-75
2020/12/03 02:34:15;;;;;;;47.08;37.47;;;2.60;91.90;;;;;;4966202;28;20203;-75
2020/12/03 02:36:42;;;;;;;45.08;37.95;;;2.70;91.20;;;;;;4959213;28;20220;-75
2020/12/03 02:39:10;;;;;;;45.22;37.92;;;2.80;90.40;;;;;;4963646;28;20203;-75
2020/12/03 02:41:38;;;;;;;50.78;42.00;;;2.70;89.60;;;;;;4961820;28;20204;-75
2020/12/03 02:44:04;;;;;;;47.50;40.00;;;2.90;88.70;;;;;;4964524;28;20204;-75
2020/12/03 02:46:30;;;;;;;46.95;39.17;;;3.00;87.30;;;;;;4962558;28;20277;-75
2020/12/03 02:48:57;;;;;;;45.47;40.35;;;2.90;87.00;;;;;;4960041;28;20214;-75
2020/12/03 02:51:23;;;;;;;49.28;41.67;;;2.80;90.70;;;;;;4966033;28;20203;-74
2020/12/03 02:53:49;;;;;;;50.38;41.90;;;2.70;90.20;;;;;;4965548;28;20562;-75
2020/12/03 02:56:17;;;;;;;51.30;40.67;;;2.80;89.00;;;;;;4965528;28;20223;-75
2020/12/03 02:58:43;;;;;;;50.00;41.53;;;2.80;91.90;;;;;;4963071;28;20219;-75
2020/12/03 03:01:09;;;;;;;44.40;39.70;;;2.80;88.70;;;;;;4966144;28;20203;-74
2020/12/03 03:03:36;;;;;;;48.75;42.78;;;2.70;88.10;;;;;;4965006;28;20207;-74
2020/12/03 03:06:02;;;;;;;53.17;43.03;;;2.70;87.30;;;;;;4960832;28;20245;-75
2020/12/03 03:08:28;;;;;;;49.38;42.55;;;2.70;86.90;;;;;;4962232;28;20203;-75
2020/12/03 03:10:55;;;;;;;52.15;45.25;;;2.60;87.10;;;;;;4962522;28;20225;-75
2020/12/03 03:13:22;;;;;;;312.77;65.00;;;2.70;87.00;;;;;;4967032;28;20551;-75
2020/12/03 03:15:49;;;;;;;50.20;41.55;;;2.70;86.70;;;;;;4962072;28;20573;-75
2020/12/03 03:18:15;;;;;;;49.42;42.38;;;2.60;87.60;;;;;;4964296;28;20223;-76
2020/12/03 03:20:41;;;;;;;455.55;83.70;;;2.70;87.20;;;;;;4957351;28;20202;-75
2020/12/03 03:23:08;;;;;;;52.80;44.13;;;2.60;90.40;;;;;;4957717;28;20214;-75
2020/12/03 03:25:34;;;;;;;57.65;41.97;;;2.50;92.30;;;;;;4963938;28;20315;-75
2020/12/03 03:28:01;;;;;;;49.83;43.13;;;2.60;90.50;;;;;;4965904;28;20206;-75
2020/12/03 03:30:28;;;;;;;57.53;45.25;;;2.60;88.80;;;;;;4967132;28;20195;-75
2020/12/03 03:32:54;;;;;;;53.45;44.35;;;2.50;87.40;;;;;;4960351;28;20678;-75
2020/12/03 03:35:21;;;;;;;62.25;45.80;;;2.50;87.60;;;;;;4960198;28;20222;-75
2020/12/03 03:37:48;;;;;;;50.28;44.55;;;2.50;88.40;;;;;;4963143;28;20226;-74
2020/12/03 03:40:14;;;;;;;1937.75;289.75;;;2.40;87.90;;;;;;4964161;28;20255;-75
2020/12/03 03:42:42;;;;;;;53.47;43.65;;;2.40;89.00;;;;;;4964729;28;20199;-74
2020/12/03 03:45:09;;;;;;;54.85;45.03;;;2.40;90.30;;;;;;4963042;28;20585;-75
2020/12/03 03:47:36;;;;;;;53.60;44.15;;;2.40;89.60;;;;;;4962848;28;20941;-74
2020/12/03 03:50:03;;;;;;;52.13;45.97;;;2.50;87.70;;;;;;4958772;28;20573;-75
2020/12/03 03:52:29;;;;;;;55.97;46.47;;;2.50;86.70;;;;;;4966907;28;20201;-75
2020/12/03 03:54:56;;;;;;;57.33;44.58;;;2.50;86.20;;;;;;4965700;28;20199;-75
2020/12/03 03:57:22;;;;;;;57.55;45.25;;;2.50;86.20;;;;;;4960086;28;20222;-75
2020/12/03 03:59:49;;;;;;;53.55;45.83;;;2.60;86.10;;;;;;4964303;28;20623;-75
2020/12/03 04:02:16;;;;;;;53.40;43.95;;;2.50;87.20;;;;;;4964223;28;20609;-75
2020/12/03 04:04:43;;;;;;;50.53;43.47;;;2.50;86.60;;;;;;4966329;28;20207;-75
2020/12/03 04:07:10;;;;;;;49.17;43.88;;;2.50;85.60;;;;;;4963773;28;20230;-75
2020/12/03 04:09:36;;;;;;;49.30;42.55;;;2.40;87.00;;;;;;4963765;28;20200;-74
2020/12/03 04:12:03;;;;;;;50.53;45.08;;;2.40;86.70;;;;;;4963453;28;20203;-75
2020/12/03 04:14:30;;;;;;;49.35;43.97;;;2.40;86.10;;;;;;4957498;28;20230;-75
2020/12/03 04:16:56;;;;;;;50.92;42.03;;;2.50;85.80;;;;;;4959312;28;20245;-75
2020/12/03 04:19:23;;;;;;;251.52;67.70;;;2.50;85.80;;;;;;4959757;28;20206;-76
2020/12/03 04:21:50;;;;;;;51.40;43.00;;;2.40;87.30;;;;;;4962923;28;20207;-77
2020/12/03 04:24:17;;;;;;;49.13;41.50;;;2.40;88.70;;;;;;4962222;28;20200;-75
2020/12/03 04:26:43;;;;;;;52.75;43.58;;;2.40;88.20;;;;;;4961662;28;20620;-77
2020/12/03 04:29:10;;;;;;;50.00;44.38;;;2.60;86.30;;;;;;4967008;28;20222;-76
2020/12/03 04:31:36;;;;;;;47.95;42.85;;;2.50;86.00;;;;;;4961112;28;20207;-77
2020/12/03 04:34:03;;;;;;;52.53;45.03;;;2.50;85.70;;;;;;4967942;28;20203;-76
2020/12/03 04:36:29;;;;;;;51.22;42.85;;;2.50;85.90;;;;;;4963764;28;20211;-75
2020/12/03 04:38:56;;;;;;;53.90;42.88;;;2.40;86.10;;;;;;4963395;28;20211;-76
2020/12/03 04:41:24;;;;;;;52.35;43.25;;;2.40;86.30;;;;;;4958081;28;20199;-76
2020/12/03 04:43:57;;;;;;;47.70;42.65;;;2.50;86.00;;;;;;4958172;28;20207;-76
2020/12/03 04:46:29;;;;;;;47.20;41.05;;;2.50;85.80;;;;;;4956967;28;20871;-76
2020/12/03 04:49:24;;;;;;;54.90;44.90;;;2.50;85.80;;;;;;4965309;28;20214;-77
2020/12/03 04:52:07;;;;;;;46.92;41.70;;;2.50;85.80;;;;;;4956336;28;20207;-77
2020/12/03 04:54:40;;;;;;;48.97;42.25;;;2.40;87.00;;;;;;4955110;28;20210;-76
2020/12/03 04:57:20;;;;;;;48.25;41.95;;;2.50;86.60;;;;;;4959526;28;20226;-76
2020/12/03 05:00:00;;;;;;;51.22;39.95;;;2.40;86.80;;;;;;4963747;28;20249;-77
2020/12/03 05:02:53;;;;;;;50.08;42.58;;;2.40;87.10;;;;;;4960436;28;20573;-78
2020/12/03 05:05:25;;;;;;;44.45;39.35;;;2.40;87.60;;;;;;4959917;28;20200;-79
2020/12/03 05:08:00;;;;;;;47.83;40.67;;;2.40;89.60;;;;;;4965853;28;20581;-76
2020/12/03 05:10:35;;;;;;;47.35;40.05;;;2.50;88.20;;;;;;4962984;28;20211;-78
2020/12/03 05:13:02;;;;;;;43.60;39.10;;;2.50;87.80;;;;;;4967632;28;20221;-76
2020/12/03 05:15:31;;;;;;;130.00;46.72;;;2.70;88.70;;;;;;4963806;28;20195;-76
2020/12/03 05:18:25;;;;;;;44.75;39.85;;;2.70;87.60;;;;;;4963929;28;20566;-77
2020/12/03 05:20:53;;;;;;;41.58;37.13;;;2.70;88.70;;;;;;4960925;28;20261;-75
2020/12/03 05:23:22;;;;;;;41.00;36.97;;;2.60;88.00;;;;;;4965167;28;20799;-77
2020/12/03 05:25:51;;;;;;;43.30;39.03;;;2.70;86.90;;;;;;4957344;28;20729;-76
2020/12/03 05:28:35;;;;;;;44.17;38.33;;;2.70;86.40;;;;;;4964813;28;20215;-75
2020/12/03 05:31:25;;;;;;;67.00;45.70;;;2.80;86.60;;;;;;4960404;28;20475;-80
2020/12/03 05:33:53;;;;;;;93.72;45.55;;;2.90;87.10;;;;;;4964155;28;20672;-78
2020/12/03 05:36:26;;;;;;;45.60;40.97;;;2.70;91.40;;;;;;4962516;28;20318;-81
2020/12/03 05:38:53;;;;;;;1999.90;388.77;;;2.70;88.80;;;;;;4960229;28;20215;-76
2020/12/03 05:41:21;;;;;;;46.67;38.97;;;2.70;88.70;;;;;;4966510;28;20203;-75
2020/12/03 05:43:48;;;;;;;42.22;37.72;;;2.60;90.60;;;;;;4967065;28;20484;-75
2020/12/03 05:46:18;;;;;;;46.33;38.58;;;2.70;89.40;;;;;;4964732;28;20233;-75
2020/12/03 05:48:58;;;;;;;41.75;37.30;;;2.70;88.80;;;;;;4966758;28;20788;-75
2020/12/03 05:51:28;;;;;;;43.00;38.40;;;2.70;88.30;;;;;;4961565;28;20204;-76
2020/12/03 05:54:01;;;;;;;116.07;45.63;;;2.70;88.10;;;;;;4968726;28;20665;-75
2020/12/03 05:56:32;;;;;;;38.50;34.47;;;2.70;89.10;;;;;;4964589;28;20220;-72
2020/12/03 05:59:13;;;;;;;38.72;34.65;;;2.80;89.20;;;;;;4967337;28;20219;-76
2020/12/03 06:01:54;;;;;;;41.03;36.90;;;2.90;88.70;;;;;;4965238;28;20274;-76
2020/12/03 06:04:25;;;;;;;38.30;34.20;;;2.80;89.00;;;;;;4962225;28;20203;-74
2020/12/03 06:07:09;;;;;;;44.03;39.13;;;2.80;88.50;;;;;;4970789;28;20239;-76
2020/12/03 06:09:58;;;;;;;42.50;38.58;;;2.90;87.40;;;;;;4968300;28;20258;-79
2020/12/03 06:12:43;;;;;;;41.28;37.33;;;2.90;87.00;;;;;;4968661;28;20199;-76
2020/12/03 06:15:39;;;;;;;38.95;35.22;;;3.00;86.10;;;;;;4962313;28;20213;-75
2020/12/03 06:18:22;;;;;;;40.13;36.03;;;3.00;85.50;;;;;;4963103;28;20230;-75
2020/12/03 06:20:57;;;;;;;41.55;37.25;;;3.00;85.60;;;;;;4959005;28;20203;-73
2020/12/03 06:23:48;;;;;;;37.70;33.92;;;2.90;85.70;;;;;;4958819;28;20203;-73
2020/12/03 06:26:29;;;;;;;33.00;30.02;;;2.90;87.00;;;;;;4967234;28;20219;-73
2020/12/03 06:29:30;;;;;;;36.00;32.63;;;2.90;85.60;;;;;;4959655;28;20222;-72
2020/12/03 06:32:06;;;;;;;32.45;29.65;;;3.00;84.60;;;;;;4945836;28;20217;-73
2020/12/03 06:34:40;;;;;;;34.67;31.52;;;3.10;83.60;;;;;;4971571;28;20206;-75
2020/12/03 06:37:19;;;;;;;33.63;30.83;;;3.20;82.60;;;;;;4967880;28;20226;-74
2020/12/03 06:39:57;;;;;;;35.45;32.20;;;3.20;82.70;;;;;;4970778;28;20211;-74
2020/12/03 06:42:31;;;;;;;35.35;32.20;;;3.20;83.40;;;;;;4967551;28;20207;-77
2020/12/03 06:45:11;;;;;;;34.15;31.35;;;3.30;83.40;;;;;;4960658;28;20995;-75
2020/12/03 06:48:02;;;;;;;36.65;33.60;;;3.30;82.90;;;;;;4963392;28;20238;-75
2020/12/03 06:50:58;;;;;;;32.92;30.23;;;3.40;81.90;;;;;;4956399;28;20207;-75
2020/12/03 06:53:57;;;;;;;34.47;31.67;;;3.20;81.90;;;;;;4961220;28;20200;-76
2020/12/03 06:57:10;;;;;;;42.47;32.08;;;3.30;81.80;;;;;;4960130;28;20223;-77
2020/12/03 07:00:10;;;;;;;34.88;32.03;;;3.30;83.20;;;;;;4961786;28;20294;-77
2020/12/03 07:03:16;;;;;;;38.45;35.22;;;3.40;86.80;;;;;;4961571;28;20467;-77
2020/12/03 07:06:39;;;;;;;34.80;31.90;;;3.40;86.70;;;;;;4948794;28;20716;-78
2020/12/03 07:09:53;;;;;;;33.05;30.25;;;3.30;86.40;;;;;;4965426;28;20391;-78
2020/12/03 07:12:42;;;;;;;33.80;30.95;;;3.30;87.20;;;;;;4961999;28;20238;-78
2020/12/03 07:16:02;;;;;;;34.05;30.85;;;3.40;84.70;;;;;;4961537;28;20199;-77
2020/12/03 07:19:14;;;;;;;34.47;31.50;;;3.40;84.70;;;;;;4887190;29;20231;-78
2020/12/03 07:21:52;;;;;;;34.10;31.00;;;3.40;84.00;;;;;;4961530;28;20594;-78
2020/12/03 07:24:22;;;;;;;32.28;29.55;;;3.40;91.70;;;;;;4966238;28;20697;-77
2020/12/03 07:27:23;;;;;;;33.53;30.70;;;3.30;88.10;;;;;;4959230;28;20708;-78
2020/12/03 07:29:56;;;;;;;33.78;31.08;;;3.40;87.00;;;;;;4969116;28;20584;-77
2020/12/03 07:32:42;;;;;;;34.90;32.10;;;3.40;84.40;;;;;;4959457;28;20207;-77
2020/12/03 07:35:25;;;;;;;34.38;31.60;;;3.50;82.60;;;;;;4968782;28;20199;-77
2020/12/03 07:38:01;;;;;;;34.45;31.42;;;3.60;81.90;;;;;;4963149;28;20278;-77
2020/12/03 07:40:28;;;;;;;35.70;32.70;;;3.50;81.90;;;;;;4955403;28;20416;-78
2020/12/03 07:43:01;;;;;;;35.03;32.05;;;3.60;81.60;;;;;;4966284;28;20218;-77
2020/12/03 07:45:42;;;;;;;36.13;33.33;;;3.70;81.20;;;;;;4960473;28;20949;-80
2020/12/03 07:48:13;;;;;;;33.22;30.60;;;3.70;79.90;;;;;;4957684;28;20200;-78
2020/12/03 07:50:50;;;;;;;32.72;30.02;;;3.90;79.20;;;;;;4962787;28;20206;-80
2020/12/03 07:53:23;;;;;;;35.28;32.45;;;3.90;79.10;;;;;;4956753;28;20199;-80
2020/12/03 07:55:52;;;;;;;33.30;30.83;;;3.90;78.80;;;;;;4954800;28;20219;-80
2020/12/03 07:58:31;;;;;;;32.72;30.27;;;4.00;78.60;;;;;;4958509;28;20224;-80
2020/12/03 08:00:58;;;;;;;34.35;31.65;;;4.10;77.80;;;;;;4961276;28;20732;-80
2020/12/03 08:03:52;;;;;;;31.65;29.42;;;4.00;78.00;;;;;;4966366;28;20596;-80
2020/12/03 08:06:30;;;;;;;32.38;29.92;;;4.00;77.80;;;;;;4960432;28;20215;-80
2020/12/03 08:09:16;;;;;;;30.83;28.63;;;4.10;77.80;;;;;;4956575;28;20192;-78
2020/12/03 08:11:49;;;;;;;31.83;29.58;;;4.20;76.40;;;;;;4955541;28;20204;-78
2020/12/03 08:14:43;;;;;;;30.02;27.92;;;4.10;75.80;;;;;;4949661;28;20196;-78
2020/12/03 08:17:36;;;;;;;29.75;27.60;;;4.10;75.80;;;;;;4961470;28;20224;-78
2020/12/03 08:20:18;;;;;;;31.75;29.15;;;4.10;75.70;;;;;;4959647;28;20701;-78
2020/12/03 08:22:48;;;;;;;31.20;28.88;;;4.10;75.50;;;;;;4970024;28;20195;-78
2020/12/03 08:25:17;;;;;;;30.00;27.17;;;4.20;75.10;;;;;;4964155;28;20207;-78
2020/12/03 08:27:51;;;;;;;31.77;29.30;;;4.20;74.90;;;;;;4967170;28;20195;-78
2020/12/03 08:30:37;;;;;;;29.77;27.77;;;4.30;74.80;;;;;;4968706;28;20505;-78
2020/12/03 08:33:07;;;;;;;28.98;26.98;;;4.40;73.90;;;;;;4970369;28;20916;-78
2020/12/03 08:35:33;;;;;;;29.80;27.90;;;4.50;73.50;;;;;;4964162;28;20740;-79
2020/12/03 08:38:01;;;;;;;30.50;28.50;;;4.50;73.10;;;;;;4963065;28;20668;-80
2020/12/03 08:40:30;;;;;;;30.67;28.50;;;4.70;73.30;;;;;;4959522;28;20203;-76
2020/12/03 08:42:57;;;;;;;34.03;31.63;;;4.80;73.20;;;;;;4972831;28;20211;-79
2020/12/03 08:45:24;;;;;;;32.20;30.00;;;4.80;73.00;;;;;;4961669;28;20211;-79
2020/12/03 08:47:53;;;;;;;31.83;29.63;;;4.80;72.50;;;;;;4972216;28;20293;-79
2020/12/03 08:50:21;;;;;;;32.95;30.42;;;4.90;72.50;;;;;;4967469;28;20255;-79
2020/12/03 08:52:47;;;;;;;34.35;31.85;;;4.90;72.80;;;;;;4955795;28;20873;-79
2020/12/03 08:55:28;;;;;;;33.13;30.45;;;4.80;72.60;;;;;;4964553;28;20211;-79
2020/12/03 08:57:59;;;;;;;34.13;31.45;;;4.90;73.00;;;;;;4970802;28;20219;-79
2020/12/03 09:00:27;;;;;;;36.03;33.03;;;4.90;73.30;;;;;;4962621;28;20195;-79
2020/12/03 09:02:54;;;;;;;33.92;31.30;;;4.90;73.90;;;;;;4967736;28;20209;-79
2020/12/03 09:05:21;;;;;;;34.08;31.48;;;4.90;75.10;;;;;;4969475;28;20195;-79
2020/12/03 09:07:52;;;;;;;36.90;34.10;;;5.00;74.10;;;;;;4971975;28;20227;-79
2020/12/03 09:10:21;;;;;;;38.38;35.13;;;5.00;74.00;;;;;;4970139;28;20196;-79
2020/12/03 09:12:49;;;;;;;34.38;31.73;;;5.00;76.70;;;;;;4963777;28;20208;-79
2020/12/03 09:15:17;;;;;;;34.47;31.65;;;4.90;76.90;;;;;;4971270;28;20195;-80
2020/12/03 09:17:51;;;;;;;34.35;31.45;;;5.00;75.60;;;;;;4958077;28;20209;-79
2020/12/03 09:20:18;;;;;;;34.85;32.08;;;5.00;78.80;;;;;;4971205;28;20242;-79
2020/12/03 09:22:45;;;;;;;33.22;30.73;;;5.10;76.40;;;;;;4966703;28;20210;-79
2020/12/03 09:25:14;;;;;;;34.15;31.55;;;5.00;75.10;;;;;;4974294;28;20713;-79
2020/12/03 09:27:42;;;;;;;881.40;122.57;;;4.90;76.40;;;;;;4962880;28;20737;-79
2020/12/03 09:30:17;;;;;;;33.65;31.05;;;4.90;85.00;;;;;;4964247;28;20204;-79
2020/12/03 09:32:47;;;;;;;35.40;32.20;;;5.00;82.90;;;;;;4962554;28;20217;-80
2020/12/03 09:35:14;;;;;;;188.55;47.17;;;5.00;77.70;;;;;;4970805;28;20692;-80
2020/12/03 09:37:41;;;;;;;37.13;34.03;;;5.10;78.40;;;;;;4968100;28;20244;-77
2020/12/03 09:40:09;;;;;;;33.75;31.05;;;5.10;78.60;;;;;;4967756;28;20217;-78
2020/12/03 09:42:41;;;;;;;76.70;35.67;;;5.30;81.70;;;;;;4964103;28;20285;-76
2020/12/03 09:45:12;;;;;;;35.03;32.25;;;5.40;81.50;;;;;;4962999;28;20305;-77
2020/12/03 09:47:41;;;;;;;35.33;32.30;;;5.50;78.30;;;;;;4958447;28;20227;-77
2020/12/03 09:50:07;;;;;;;34.13;31.27;;;5.90;74.00;;;;;;4961003;28;20204;-76
2020/12/03 09:52:35;;;;;;;33.78;31.38;;;5.90;72.70;;;;;;4964205;28;20206;-77
2020/12/03 09:55:14;;;;;;;33.42;30.85;;;6.00;72.30;;;;;;4961638;28;20256;-73
2020/12/03 09:57:45;;;;;;;33.00;30.55;;;6.20;71.60;;;;;;4966138;28;20236;-76
2020/12/03 10:00:15;;;;;;;35.13;32.38;;;6.20;70.60;;;;;;4966232;28;20198;-76
2020/12/03 10:03:22;;;;;;;34.65;31.75;;;6.10;70.80;;;;;;4964241;28;20202;-77
2020/12/03 10:06:01;;;;;;;32.97;30.55;;;6.10;70.50;;;;;;4961108;28;20564;-76
2020/12/03 10:08:52;;;;;;;32.85;30.45;;;6.10;69.80;;;;;;4966356;28;20226;-79
2020/12/03 10:11:49;;;;;;;34.60;32.00;;;6.10;69.50;;;;;;4961679;28;20211;-77
2020/12/03 10:14:43;;;;;;;32.90;30.50;;;6.20;69.90;;;;;;4961101;28;20234;-75
2020/12/03 10:17:15;;;;;;;34.10;31.70;;;6.30;69.40;;;;;;4966000;28;20230;-73
2020/12/03 10:19:44;;;;;;;35.83;32.90;;;6.30;68.40;;;;;;4955708;28;20333;-74
2020/12/03 10:22:22;;;;;;;33.20;30.70;;;6.20;68.60;;;;;;4961675;28;20224;-73
2020/12/03 10:24:54;;;;;;;34.40;31.77;;;6.20;68.90;;;;;;4962938;28;20203;-72
2020/12/03 10:27:31;;;;;;;34.28;31.67;;;6.20;69.40;;;;;;4959819;28;20313;-73
2020/12/03 10:30:00;;;;;;;33.38;30.98;;;6.30;70.40;;;;;;4967592;28;20310;-75
2020/12/03 10:32:28;;;;;;;35.13;32.63;;;6.30;71.10;;;;;;4959930;28;20211;-75
2020/12/03 10:34:55;;;;;;;35.60;33.15;;;6.20;67.70;;;;;;4952722;28;20210;-75
2020/12/03 10:37:29;;;;;;;33.13;30.80;;;6.20;66.40;;;;;;4964929;28;20938;-74
2020/12/03 10:40:00;;;;;;;35.75;33.17;;;6.00;67.30;;;;;;4963787;28;20219;-76
2020/12/03 10:42:34;;;;;;;32.90;30.35;;;6.00;66.70;;;;;;4965893;28;20210;-77
2020/12/03 10:45:06;;;;;;;31.15;28.98;;;6.10;66.60;;;;;;4964986;28;20213;-78
2020/12/03 10:47:42;;;;;;;31.83;29.23;;;6.20;66.40;;;;;;4962826;28;20220;-80
2020/12/03 10:50:11;;;;;;;33.05;30.75;;;6.20;65.90;;;;;;4971900;28;20305;-80
2020/12/03 10:52:41;;;;;;;32.55;30.20;;;6.30;65.60;;;;;;4970704;28;20207;-79
2020/12/03 10:55:08;;;;;;;31.77;29.35;;;6.30;65.60;;;;;;4969657;28;20545;-79
2020/12/03 10:57:41;;;;;;;31.40;29.30;;;6.30;65.50;;;;;;4971626;28;20234;-81
2020/12/03 11:00:09;;;;;;;34.25;31.77;;;6.30;65.50;;;;;;4964757;28;20202;-80
2020/12/03 11:02:42;;;;;;;34.40;31.55;;;6.30;70.00;;;;;;4969904;28;20874;-78
2020/12/03 11:05:11;;;;;;;31.73;29.52;;;6.30;67.40;;;;;;4969558;28;20745;-78
2020/12/03 11:07:39;;;;;;;33.33;30.95;;;6.20;66.40;;;;;;4952658;28;20226;-78
2020/12/03 11:10:06;;;;;;;31.55;29.38;;;6.20;66.70;;;;;;4962677;28;20203;-78
2020/12/03 11:12:33;;;;;;;31.85;29.65;;;6.10;66.90;;;;;;4965277;28;20203;-78
2020/12/03 11:15:03;;;;;;;32.83;30.45;;;6.20;66.70;;;;;;4967258;28;20232;-79
2020/12/03 11:17:46;;;;;;;32.53;30.17;;;6.30;65.20;;;;;;4970313;28;20223;-78
2020/12/03 11:20:16;;;;;;;32.50;30.15;;;6.30;65.00;;;;;;4968981;28;20570;-78
2020/12/03 11:23:01;;;;;;;33.22;30.67;;;6.20;65.20;;;;;;4968297;28;20289;-79
2020/12/03 11:25:29;;;;;;;32.63;30.35;;;6.20;65.60;;;;;;4967593;28;20205;-79
2020/12/03 11:28:00;;;;;;;32.53;30.02;;;6.30;65.30;;;;;;4966316;28;20258;-79
2020/12/03 11:30:28;;;;;;;33.85;31.23;;;6.30;65.80;;;;;;4969038;28;20208;-78
2020/12/03 11:32:56;;;;;;;31.70;29.40;;;6.10;66.40;;;;;;4967350;28;20214;-76
2020/12/03 11:35:27;;;;;;;31.77;29.58;;;6.10;67.10;;;;;;4965296;28;20228;-76
2020/12/03 11:37:56;;;;;;;31.42;29.33;;;6.20;66.40;;;;;;4960583;28;20251;-77
2020/12/03 11:40:32;;;;;;;29.95;27.50;;;6.20;65.90;;;;;;4961687;28;20211;-76
2020/12/03 11:43:20;;;;;;;32.00;29.80;;;6.20;65.80;;;;;;4968514;28;20320;-77
2020/12/03 11:46:19;;;;;;;32.72;29.90;;;6.20;66.20;;;;;;4966625;28;20223;-78
2020/12/03 11:48:51;;;;;;;32.05;29.42;;;6.20;66.30;;;;;;4960309;28;20196;-77
2020/12/03 11:51:26;;;;;;;31.67;29.38;;;6.20;65.80;;;;;;4957091;28;20198;-74
2020/12/03 11:53:56;;;;;;;31.38;29.20;;;6.20;70.00;;;;;;4964373;28;20236;-74
2020/12/03 11:56:22;;;;;;;30.33;28.00;;;6.20;66.60;;;;;;4962088;28;20368;-71
2020/12/03 11:58:49;;;;;;;31.05;28.80;;;6.30;66.20;;;;;;4960863;28;20220;-72
2020/12/03 12:01:17;;;;;;;31.63;29.30;;;6.20;66.10;;;;;;4962852;28;20203;-72
2020/12/03 12:03:46;;;;;;;31.05;28.88;;;6.30;65.90;;;;;;4946946;28;20208;-74
2020/12/03 12:06:22;;;;;;;30.30;28.15;;;6.20;65.60;;;;;;4961865;28;20235;-78
2020/12/03 12:08:54;;;;;;;30.75;28.55;;;6.20;65.70;;;;;;4953754;28;20196;-75
2020/12/03 12:11:27;;;;;;;31.98;29.48;;;6.30;65.40;;;;;;4959719;28;20202;-74
2020/12/03 12:13:55;;;;;;;29.50;27.20;;;6.40;65.50;;;;;;4957466;28;20202;-75
2020/12/03 12:16:22;;;;;;;31.42;29.08;;;6.30;68.70;;;;;;4957287;28;20214;-75
2020/12/03 12:18:49;;;;;;;30.00;27.80;;;6.30;66.60;;;;;;4960258;28;20224;-75
2020/12/03 12:21:16;;;;;;;29.17;27.25;;;6.20;66.10;;;;;;4959636;28;20198;-76
2020/12/03 12:23:42;;;;;;;31.48;29.10;;;6.10;68.20;;;;;;4964309;28;20199;-75
2020/12/03 12:26:09;;;;;;;30.90;28.20;;;6.30;71.60;;;;;;4961586;28;20241;-75
2020/12/03 12:28:35;;;;;;;29.98;27.88;;;6.20;71.70;;;;;;4957212;28;20206;-75
2020/12/03 12:31:02;;;;;;;31.15;28.85;;;6.20;71.20;;;;;;4965534;28;20199;-75
2020/12/03 12:33:29;;;;;;;32.17;29.80;;;6.30;71.10;;;;;;4964433;28;20573;-76
2020/12/03 12:35:55;;;;;;;30.02;27.90;;;6.30;68.50;;;;;;4957825;28;20219;-77
2020/12/03 12:38:22;;;;;;;29.70;27.42;;;6.50;68.10;;;;;;4962792;28;21342;-76
2020/12/03 12:40:48;;;;;;;30.00;27.65;;;6.50;66.30;;;;;;4963718;28;20199;-75
2020/12/03 12:43:15;;;;;;;30.90;28.73;;;6.50;67.50;;;;;;4962023;28;20293;-75
2020/12/03 12:45:41;;;;;;;30.88;28.75;;;6.60;67.10;;;;;;4964720;28;20223;-75
2020/12/03 12:48:08;;;;;;;31.52;29.15;;;6.50;66.20;;;;;;4959944;28;20310;-75
2020/12/03 12:50:35;;;;;;;29.55;27.42;;;6.60;66.30;;;;;;4954582;28;20206;-75
2020/12/03 12:53:01;;;;;;;31.17;28.88;;;6.60;65.40;;;;;;4966782;28;20891;-73
2020/12/03 12:55:30;;;;;;;30.67;28.55;;;6.40;70.40;;;;;;4954882;28;20207;-74
2020/12/03 12:57:57;;;;;;;30.10;27.67;;;6.40;69.00;;;;;;4966267;28;20617;-75
2020/12/03 13:00:24;;;;;;;31.33;29.13;;;6.50;67.80;;;;;;4965342;28;20210;-76
2020/12/03 13:02:50;;;;;;;31.65;29.30;;;6.50;67.10;;;;;;4961892;28;20285;-75